sensor_id;sensor_type;location;lat;lon;timestamp;temperature;humidity
4530;DHT22;2277;51.626;7.516;2024-01-15T00:01:29;3.00;99.90
4530;DHT22;2277;51.626;7.516;2024-01-15T00:03:54;3.00;99.90
4530;DHT22;2277;51.626;7.516;2024-01-15T00:06:20;3.00;99.90
4530;DHT22;2277;51.626;7.516;2024-01-15T00:08:46;3.00;99.90
4530;DHT22;2277;51.626;7.516;2024-01-15T00:11:11;3.00;99.90
4530;DHT22;2277;51.626;7.516;2024-01-15T00:13:37;3.00;99.90
4530;DHT22;2277;51.626;7.516;2024-01-15T00:16:03;3.00;99.90
4530;DHT22;2277;51.626;7.516;2024-01-15T00:18:29;2.90;99.90
4530;DHT22;2277;51.626;7.516;2024-01-15T00:20:54;3.10;99.90
4530;DHT22;2277;51.626;7.516;2024-01-15T00:23:20;3.10;99.90
4530;DHT22;2277;51.626;7.516;2024-01-15T00:25:46;3.10;99.90
4530;DHT22;2277;51.626;7.516;2024-01-15T00:28:11;3.10;99.90
4530;DHT22;2277;51.626;7.516;2024-01-15T00:30:37;3.10;99.90
4530;DHT22;2277;51.626;7.516;2024-01-15T00:33:03;3.10;99.90
4530;DHT22;2277;51.626;7.516;2024-01-15T00:35:28;3.00;99.90
4530;DHT22;2277;51.626;7.516;2024-01-15T00:37:54;3.00;99.90
4530;DHT22;2277;51.626;7.516;2024-01-15T00:40:19;3.00;99.90
4530;DHT22;2277;51.626;7.516;2024-01-15T00:42:45;3.00;99.90
4530;DHT22;2277;51.626;7.516;2024-01-15T00:45:10;3.00;99.90
4530;DHT22;2277;51.626;7.516;2024-01-15T00:47:36;3.10;99.90
4530;DHT22;2277;51.626;7.516;2024-01-15T00:50:02;3.10;99.90
4530;DHT22;2277;51.626;7.516;2024-01-15T00:52:28;3.10;99.90
4530;DHT22;2277;51.626;7.516;2024-01-15T00:54:53;3.00;99.90
4530;DHT22;2277;51.626;7.516;2024-01-15T00:57:19;3.00;99.90
4530;DHT22;2277;51.626;7.516;2024-01-15T00:59:45;3.00;99.90
4530;DHT22;2277;51.626;7.516;2024-01-15T01:02:10;3.00;99.90
4530;DHT22;2277;51.626;7.516;2024-01-15T01:04:36;3.00;99.90
4530;DHT22;2277;51.626;7.516;2024-01-15T01:07:02;3.00;99.90
4530;DHT22;2277;51.626;7.516;2024-01-15T01:09:27;3.00;99.90
4530;DHT22;2277;51.626;7.516;2024-01-15T01:11:55;3.00;99.90
4530;DHT22;2277;51.626;7.516;2024-01-15T01:14:21;3.00;99.90
4530;DHT22;2277;51.626;7.516;2024-01-15T01:16:47;3.10;99.90
4530;DHT22;2277;51.626;7.516;2024-01-15T01:19:12;3.10;99.90
4530;DHT22;2277;51.626;7.516;2024-01-15T01:21:38;3.10;99.90
4530;DHT22;2277;51.626;7.516;2024-01-15T01:24:03;3.00;99.90
4530;DHT22;2277;51.626;7.516;2024-01-15T01:26:30;3.10;99.90
4530;DHT22;2277;51.626;7.516;2024-01-15T01:28:55;3.10;99.90
4530;DHT22;2277;51.626;7.516;2024-01-15T01:31:21;3.00;99.90
4530;DHT22;2277;51.626;7.516;2024-01-15T01:33:47;3.00;99.90
4530;DHT22;2277;51.626;7.516;2024-01-15T01:36:12;3.10;99.90
4530;DHT22;2277;51.626;7.516;2024-01-15T01:38:38;3.00;99.90
4530;DHT22;2277;51.626;7.516;2024-01-15T01:41:03;3.00;99.90
4530;DHT22;2277;51.626;7.516;2024-01-15T01:43:29;3.00;99.90
4530;DHT22;2277;51.626;7.516;2024-01-15T01:45:56;3.10;99.90
4530;DHT22;2277;51.626;7.516;2024-01-15T01:48:24;3.10;99.90
4530;DHT22;2277;51.626;7.516;2024-01-15T01:50:53;3.10;99.90
4530;DHT22;2277;51.626;7.516;2024-01-15T01:53:19;3.10;99.90
4530;DHT22;2277;51.626;7.516;2024-01-15T01:55:45;3.10;99.90
4530;DHT22;2277;51.626;7.516;2024-01-15T01:58:11;3.10;99.90
4530;DHT22;2277;51.626;7.516;2024-01-15T02:00:37;3.10;99.90
4530;DHT22;2277;51.626;7.516;2024-01-15T02:03:03;3.20;99.90
4530;DHT22;2277;51.626;7.516;2024-01-15T02:05:29;3.10;99.90
4530;DHT22;2277;51.626;7.516;2024-01-15T02:07:55;3.20;99.90
4530;DHT22;2277;51.626;7.516;2024-01-15T02:10:21;3.20;99.90
4530;DHT22;2277;51.626;7.516;2024-01-15T02:12:47;3.30;99.90
4530;DHT22;2277;51.626;7.516;2024-01-15T02:15:14;3.30;99.90
4530;DHT22;2277;51.626;7.516;2024-01-15T02:18:02;3.30;99.90
4530;DHT22;2277;51.626;7.516;2024-01-15T02:20:28;3.30;99.90
4530;DHT22;2277;51.626;7.516;2024-01-15T02:22:54;3.20;99.90
4530;DHT22;2277;51.626;7.516;2024-01-15T02:25:20;3.30;99.90
4530;DHT22;2277;51.626;7.516;2024-01-15T02:27:46;3.30;99.90
4530;DHT22;2277;51.626;7.516;2024-01-15T02:30:12;3.30;99.90
4530;DHT22;2277;51.626;7.516;2024-01-15T02:32:38;3.40;99.90
4530;DHT22;2277;51.626;7.516;2024-01-15T02:35:04;3.30;99.90
4530;DHT22;2277;51.626;7.516;2024-01-15T02:37:30;3.20;99.90
4530;DHT22;2277;51.626;7.516;2024-01-15T02:39:56;3.20;99.90
4530;DHT22;2277;51.626;7.516;2024-01-15T02:42:21;3.30;99.90
4530;DHT22;2277;51.626;7.516;2024-01-15T02:44:47;3.40;99.90
4530;DHT22;2277;51.626;7.516;2024-01-15T02:47:14;3.30;99.90
4530;DHT22;2277;51.626;7.516;2024-01-15T02:49:40;3.40;99.90
4530;DHT22;2277;51.626;7.516;2024-01-15T02:52:05;3.40;99.90
4530;DHT22;2277;51.626;7.516;2024-01-15T02:54:31;3.20;99.90
4530;DHT22;2277;51.626;7.516;2024-01-15T02:56:56;3.20;99.90
4530;DHT22;2277;51.626;7.516;2024-01-15T02:59:22;3.20;99.90
4530;DHT22;2277;51.626;7.516;2024-01-15T03:01:47;3.30;99.90
4530;DHT22;2277;51.626;7.516;2024-01-15T03:04:13;3.20;99.90
4530;DHT22;2277;51.626;7.516;2024-01-15T03:06:39;3.20;99.90
4530;DHT22;2277;51.626;7.516;2024-01-15T03:09:04;3.20;99.90
4530;DHT22;2277;51.626;7.516;2024-01-15T03:11:37;3.30;99.90
4530;DHT22;2277;51.626;7.516;2024-01-15T03:14:03;3.20;99.90
4530;DHT22;2277;51.626;7.516;2024-01-15T03:16:28;3.30;99.90
4530;DHT22;2277;51.626;7.516;2024-01-15T03:18:54;3.20;99.90
4530;DHT22;2277;51.626;7.516;2024-01-15T03:21:20;3.20;99.90
4530;DHT22;2277;51.626;7.516;2024-01-15T03:23:45;3.10;99.90
4530;DHT22;2277;51.626;7.516;2024-01-15T03:26:11;3.20;99.90
4530;DHT22;2277;51.626;7.516;2024-01-15T03:28:36;3.20;99.90
4530;DHT22;2277;51.626;7.516;2024-01-15T03:31:02;3.20;99.90
4530;DHT22;2277;51.626;7.516;2024-01-15T03:33:27;3.20;99.90
4530;DHT22;2277;51.626;7.516;2024-01-15T03:35:53;3.10;99.90
4530;DHT22;2277;51.626;7.516;2024-01-15T03:38:19;3.00;99.90
4530;DHT22;2277;51.626;7.516;2024-01-15T03:40:44;3.10;99.90
4530;DHT22;2277;51.626;7.516;2024-01-15T03:43:10;3.10;99.90
4530;DHT22;2277;51.626;7.516;2024-01-15T03:45:35;3.10;99.90
4530;DHT22;2277;51.626;7.516;2024-01-15T03:48:01;3.10;99.90
4530;DHT22;2277;51.626;7.516;2024-01-15T03:50:26;3.10;99.90
4530;DHT22;2277;51.626;7.516;2024-01-15T03:52:52;3.10;99.90
4530;DHT22;2277;51.626;7.516;2024-01-15T03:55:18;3.10;99.90
4530;DHT22;2277;51.626;7.516;2024-01-15T03:57:43;3.20;99.90
4530;DHT22;2277;51.626;7.516;2024-01-15T04:00:09;3.10;99.90
4530;DHT22;2277;51.626;7.516;2024-01-15T04:02:35;3.20;99.90
4530;DHT22;2277;51.626;7.516;2024-01-15T04:05:00;3.10;99.90
4530;DHT22;2277;51.626;7.516;2024-01-15T04:07:26;3.10;99.90
4530;DHT22;2277;51.626;7.516;2024-01-15T04:09:52;3.10;99.90
4530;DHT22;2277;51.626;7.516;2024-01-15T04:12:17;3.20;99.90
4530;DHT22;2277;51.626;7.516;2024-01-15T04:14:43;3.20;99.90
4530;DHT22;2277;51.626;7.516;2024-01-15T04:17:08;3.20;99.90
4530;DHT22;2277;51.626;7.516;2024-01-15T04:19:38;3.20;99.90
4530;DHT22;2277;51.626;7.516;2024-01-15T04:22:04;3.20;99.90
4530;DHT22;2277;51.626;7.516;2024-01-15T04:24:31;3.20;99.90
4530;DHT22;2277;51.626;7.516;2024-01-15T04:26:57;3.20;99.90
4530;DHT22;2277;51.626;7.516;2024-01-15T04:29:22;3.20;99.90
4530;DHT22;2277;51.626;7.516;2024-01-15T04:31:48;3.10;99.90
4530;DHT22;2277;51.626;7.516;2024-01-15T04:34:13;3.10;99.90
4530;DHT22;2277;51.626;7.516;2024-01-15T04:36:39;3.20;99.90
4530;DHT22;2277;51.626;7.516;2024-01-15T04:39:06;3.20;99.90
4530;DHT22;2277;51.626;7.516;2024-01-15T04:41:31;3.20;99.90
4530;DHT22;2277;51.626;7.516;2024-01-15T04:43:57;3.20;99.90
4530;DHT22;2277;51.626;7.516;2024-01-15T04:46:22;3.20;99.90
4530;DHT22;2277;51.626;7.516;2024-01-15T04:48:48;3.10;99.90
4530;DHT22;2277;51.626;7.516;2024-01-15T04:51:14;3.20;99.90
4530;DHT22;2277;51.626;7.516;2024-01-15T04:53:39;3.20;99.90
4530;DHT22;2277;51.626;7.516;2024-01-15T04:56:05;3.20;99.90
4530;DHT22;2277;51.626;7.516;2024-01-15T04:58:30;3.20;99.90
4530;DHT22;2277;51.626;7.516;2024-01-15T05:00:56;3.20;99.90
4530;DHT22;2277;51.626;7.516;2024-01-15T05:03:22;3.20;99.90
4530;DHT22;2277;51.626;7.516;2024-01-15T05:05:47;3.20;99.90
4530;DHT22;2277;51.626;7.516;2024-01-15T05:08:13;3.20;99.90
4530;DHT22;2277;51.626;7.516;2024-01-15T05:10:38;3.30;99.90
4530;DHT22;2277;51.626;7.516;2024-01-15T05:13:04;3.30;99.90
4530;DHT22;2277;51.626;7.516;2024-01-15T05:15:29;3.40;99.90
4530;DHT22;2277;51.626;7.516;2024-01-15T05:17:55;3.30;99.90
4530;DHT22;2277;51.626;7.516;2024-01-15T05:20:20;3.40;99.90
4530;DHT22;2277;51.626;7.516;2024-01-15T05:22:46;3.30;99.90
4530;DHT22;2277;51.626;7.516;2024-01-15T05:25:12;3.30;99.90
4530;DHT22;2277;51.626;7.516;2024-01-15T05:27:37;3.20;99.90
4530;DHT22;2277;51.626;7.516;2024-01-15T05:30:03;3.20;99.90
4530;DHT22;2277;51.626;7.516;2024-01-15T05:32:29;3.40;99.90
4530;DHT22;2277;51.626;7.516;2024-01-15T05:34:55;3.30;99.90
4530;DHT22;2277;51.626;7.516;2024-01-15T05:37:20;3.40;99.90
4530;DHT22;2277;51.626;7.516;2024-01-15T05:39:46;3.40;99.90
4530;DHT22;2277;51.626;7.516;2024-01-15T05:42:12;3.40;99.90
4530;DHT22;2277;51.626;7.516;2024-01-15T05:44:37;3.50;99.90
4530;DHT22;2277;51.626;7.516;2024-01-15T05:47:03;3.50;99.90
4530;DHT22;2277;51.626;7.516;2024-01-15T05:49:29;3.40;99.90
4530;DHT22;2277;51.626;7.516;2024-01-15T05:51:55;3.40;99.90
4530;DHT22;2277;51.626;7.516;2024-01-15T05:54:21;3.50;99.90
4530;DHT22;2277;51.626;7.516;2024-01-15T05:56:46;3.50;99.90
4530;DHT22;2277;51.626;7.516;2024-01-15T05:59:12;3.40;99.90
4530;DHT22;2277;51.626;7.516;2024-01-15T06:01:37;3.40;99.90
4530;DHT22;2277;51.626;7.516;2024-01-15T06:04:03;3.50;99.90
4530;DHT22;2277;51.626;7.516;2024-01-15T06:06:29;3.40;99.90
4530;DHT22;2277;51.626;7.516;2024-01-15T06:08:54;3.50;99.90
4530;DHT22;2277;51.626;7.516;2024-01-15T06:11:20;3.40;99.90
4530;DHT22;2277;51.626;7.516;2024-01-15T06:13:45;3.40;99.90
4530;DHT22;2277;51.626;7.516;2024-01-15T06:16:14;3.50;99.90
4530;DHT22;2277;51.626;7.516;2024-01-15T06:18:41;3.50;99.90
4530;DHT22;2277;51.626;7.516;2024-01-15T06:21:07;3.50;99.90
4530;DHT22;2277;51.626;7.516;2024-01-15T06:23:33;3.50;99.90
4530;DHT22;2277;51.626;7.516;2024-01-15T06:25:58;3.50;99.90
4530;DHT22;2277;51.626;7.516;2024-01-15T06:28:24;3.50;99.90
4530;DHT22;2277;51.626;7.516;2024-01-15T06:30:49;3.50;99.90
4530;DHT22;2277;51.626;7.516;2024-01-15T06:33:15;3.60;99.90
4530;DHT22;2277;51.626;7.516;2024-01-15T06:35:41;3.50;99.90
4530;DHT22;2277;51.626;7.516;2024-01-15T06:38:06;3.50;99.90
4530;DHT22;2277;51.626;7.516;2024-01-15T06:40:32;3.50;99.90
4530;DHT22;2277;51.626;7.516;2024-01-15T06:42:57;3.40;99.90
4530;DHT22;2277;51.626;7.516;2024-01-15T06:45:23;3.50;99.90
4530;DHT22;2277;51.626;7.516;2024-01-15T06:47:48;3.50;99.90
4530;DHT22;2277;51.626;7.516;2024-01-15T06:50:14;3.50;99.90
4530;DHT22;2277;51.626;7.516;2024-01-15T06:52:39;3.40;99.90
4530;DHT22;2277;51.626;7.516;2024-01-15T06:55:05;3.50;99.90
4530;DHT22;2277;51.626;7.516;2024-01-15T06:57:31;3.50;99.90
4530;DHT22;2277;51.626;7.516;2024-01-15T06:59:57;3.40;99.90
4530;DHT22;2277;51.626;7.516;2024-01-15T07:02:22;3.40;99.90
4530;DHT22;2277;51.626;7.516;2024-01-15T07:04:48;3.40;99.90
4530;DHT22;2277;51.626;7.516;2024-01-15T07:07:13;3.40;99.90
4530;DHT22;2277;51.626;7.516;2024-01-15T07:09:39;3.40;99.90
4530;DHT22;2277;51.626;7.516;2024-01-15T07:12:04;3.40;99.90
4530;DHT22;2277;51.626;7.516;2024-01-15T07:14:30;3.40;99.90
4530;DHT22;2277;51.626;7.516;2024-01-15T07:16:56;3.40;99.90
4530;DHT22;2277;51.626;7.516;2024-01-15T07:19:21;3.40;99.90
4530;DHT22;2277;51.626;7.516;2024-01-15T07:21:47;3.50;99.90
4530;DHT22;2277;51.626;7.516;2024-01-15T07:24:14;3.50;99.90
4530;DHT22;2277;51.626;7.516;2024-01-15T07:26:40;3.50;99.90
4530;DHT22;2277;51.626;7.516;2024-01-15T07:29:05;3.50;99.90
4530;DHT22;2277;51.626;7.516;2024-01-15T07:31:31;3.40;99.90
4530;DHT22;2277;51.626;7.516;2024-01-15T07:33:57;3.40;99.90
4530;DHT22;2277;51.626;7.516;2024-01-15T07:36:23;3.40;99.90
4530;DHT22;2277;51.626;7.516;2024-01-15T07:38:48;3.50;99.90
4530;DHT22;2277;51.626;7.516;2024-01-15T07:41:15;3.50;99.90
4530;DHT22;2277;51.626;7.516;2024-01-15T07:43:41;3.40;99.90
4530;DHT22;2277;51.626;7.516;2024-01-15T07:46:06;3.50;99.90
4530;DHT22;2277;51.626;7.516;2024-01-15T07:48:32;3.50;99.90
4530;DHT22;2277;51.626;7.516;2024-01-15T07:50:58;3.50;99.90
4530;DHT22;2277;51.626;7.516;2024-01-15T07:53:23;3.40;99.90
4530;DHT22;2277;51.626;7.516;2024-01-15T07:55:49;3.40;99.90
4530;DHT22;2277;51.626;7.516;2024-01-15T07:58:14;3.50;99.90
4530;DHT22;2277;51.626;7.516;2024-01-15T08:00:40;3.60;99.90
4530;DHT22;2277;51.626;7.516;2024-01-15T08:03:05;3.50;99.90
4530;DHT22;2277;51.626;7.516;2024-01-15T08:05:31;3.50;99.90
4530;DHT22;2277;51.626;7.516;2024-01-15T08:07:58;3.40;99.90
4530;DHT22;2277;51.626;7.516;2024-01-15T08:10:23;3.50;99.90
4530;DHT22;2277;51.626;7.516;2024-01-15T08:12:49;3.50;99.90
4530;DHT22;2277;51.626;7.516;2024-01-15T08:15:14;3.50;99.90
4530;DHT22;2277;51.626;7.516;2024-01-15T08:17:40;3.50;99.90
4530;DHT22;2277;51.626;7.516;2024-01-15T08:20:06;3.40;99.90
4530;DHT22;2277;51.626;7.516;2024-01-15T08:22:31;3.40;99.90
4530;DHT22;2277;51.626;7.516;2024-01-15T08:24:57;3.40;99.90
4530;DHT22;2277;51.626;7.516;2024-01-15T08:27:22;3.40;99.90
4530;DHT22;2277;51.626;7.516;2024-01-15T08:29:48;3.40;99.90
4530;DHT22;2277;51.626;7.516;2024-01-15T08:32:13;3.30;99.90
4530;DHT22;2277;51.626;7.516;2024-01-15T08:34:41;3.30;99.90
4530;DHT22;2277;51.626;7.516;2024-01-15T08:37:07;3.30;99.90
4530;DHT22;2277;51.626;7.516;2024-01-15T08:39:33;3.30;99.90
4530;DHT22;2277;51.626;7.516;2024-01-15T08:41:58;3.30;99.90
4530;DHT22;2277;51.626;7.516;2024-01-15T08:44:24;3.30;99.90
4530;DHT22;2277;51.626;7.516;2024-01-15T08:46:49;3.20;99.90
4530;DHT22;2277;51.626;7.516;2024-01-15T08:49:15;3.20;99.90
4530;DHT22;2277;51.626;7.516;2024-01-15T08:51:40;3.30;99.90
4530;DHT22;2277;51.626;7.516;2024-01-15T08:54:06;3.30;99.90
4530;DHT22;2277;51.626;7.516;2024-01-15T08:56:33;3.20;99.90
4530;DHT22;2277;51.626;7.516;2024-01-15T08:58:59;3.20;99.90
4530;DHT22;2277;51.626;7.516;2024-01-15T09:01:25;3.10;99.90
4530;DHT22;2277;51.626;7.516;2024-01-15T09:03:51;3.10;99.90
4530;DHT22;2277;51.626;7.516;2024-01-15T09:06:16;3.10;99.90
4530;DHT22;2277;51.626;7.516;2024-01-15T09:08:42;3.20;99.90
4530;DHT22;2277;51.626;7.516;2024-01-15T09:11:08;3.20;99.90
4530;DHT22;2277;51.626;7.516;2024-01-15T09:13:33;3.20;99.90
4530;DHT22;2277;51.626;7.516;2024-01-15T09:15:59;3.20;99.90
4530;DHT22;2277;51.626;7.516;2024-01-15T09:18:25;3.10;99.90
4530;DHT22;2277;51.626;7.516;2024-01-15T09:20:51;3.10;99.90
4530;DHT22;2277;51.626;7.516;2024-01-15T09:23:16;3.20;99.90
4530;DHT22;2277;51.626;7.516;2024-01-15T09:25:42;3.20;99.90
4530;DHT22;2277;51.626;7.516;2024-01-15T09:28:07;3.30;99.90
4530;DHT22;2277;51.626;7.516;2024-01-15T09:30:33;3.30;99.90
4530;DHT22;2277;51.626;7.516;2024-01-15T09:32:59;3.30;99.90
4530;DHT22;2277;51.626;7.516;2024-01-15T09:35:24;3.30;99.90
4530;DHT22;2277;51.626;7.516;2024-01-15T09:37:50;3.30;99.90
4530;DHT22;2277;51.626;7.516;2024-01-15T09:40:16;3.40;99.90
4530;DHT22;2277;51.626;7.516;2024-01-15T09:42:42;3.40;99.90
4530;DHT22;2277;51.626;7.516;2024-01-15T09:45:08;3.40;99.90
4530;DHT22;2277;51.626;7.516;2024-01-15T09:47:39;3.30;99.90
4530;DHT22;2277;51.626;7.516;2024-01-15T09:50:06;3.40;99.90
4530;DHT22;2277;51.626;7.516;2024-01-15T09:52:33;3.40;99.90
4530;DHT22;2277;51.626;7.516;2024-01-15T09:55:01;3.40;99.90
4530;DHT22;2277;51.626;7.516;2024-01-15T09:57:28;3.50;99.90
4530;DHT22;2277;51.626;7.516;2024-01-15T09:59:54;3.50;99.90
4530;DHT22;2277;51.626;7.516;2024-01-15T10:02:22;3.50;99.90
4530;DHT22;2277;51.626;7.516;2024-01-15T10:04:48;3.50;99.90
4530;DHT22;2277;51.626;7.516;2024-01-15T10:07:16;3.50;99.90
4530;DHT22;2277;51.626;7.516;2024-01-15T10:09:45;3.50;99.90
4530;DHT22;2277;51.626;7.516;2024-01-15T10:12:11;3.60;99.90
4530;DHT22;2277;51.626;7.516;2024-01-15T10:14:37;3.50;99.90
4530;DHT22;2277;51.626;7.516;2024-01-15T10:17:12;3.40;99.90
4530;DHT22;2277;51.626;7.516;2024-01-15T10:19:38;3.40;99.90
4530;DHT22;2277;51.626;7.516;2024-01-15T10:22:07;3.40;99.90
4530;DHT22;2277;51.626;7.516;2024-01-15T10:24:35;3.50;99.90
4530;DHT22;2277;51.626;7.516;2024-01-15T10:27:08;3.60;99.90
4530;DHT22;2277;51.626;7.516;2024-01-15T10:29:34;3.60;99.90
4530;DHT22;2277;51.626;7.516;2024-01-15T10:32:00;3.50;99.90
4530;DHT22;2277;51.626;7.516;2024-01-15T10:34:26;3.50;99.90
4530;DHT22;2277;51.626;7.516;2024-01-15T10:36:52;3.50;99.90
4530;DHT22;2277;51.626;7.516;2024-01-15T10:39:24;3.50;99.90
4530;DHT22;2277;51.626;7.516;2024-01-15T10:41:50;3.60;99.90
4530;DHT22;2277;51.626;7.516;2024-01-15T10:44:19;3.60;99.90
4530;DHT22;2277;51.626;7.516;2024-01-15T10:46:45;3.60;99.90
4530;DHT22;2277;51.626;7.516;2024-01-15T10:49:13;3.50;99.90
4530;DHT22;2277;51.626;7.516;2024-01-15T10:51:39;3.50;99.90
4530;DHT22;2277;51.626;7.516;2024-01-15T10:54:06;3.50;99.90
4530;DHT22;2277;51.626;7.516;2024-01-15T10:56:32;3.50;99.90
4530;DHT22;2277;51.626;7.516;2024-01-15T10:59:01;3.50;99.90
4530;DHT22;2277;51.626;7.516;2024-01-15T11:01:28;3.50;99.90
4530;DHT22;2277;51.626;7.516;2024-01-15T11:03:55;3.50;99.90
4530;DHT22;2277;51.626;7.516;2024-01-15T11:06:24;3.50;99.90
4530;DHT22;2277;51.626;7.516;2024-01-15T11:08:50;3.50;99.90
4530;DHT22;2277;51.626;7.516;2024-01-15T11:11:16;3.50;99.90
4530;DHT22;2277;51.626;7.516;2024-01-15T11:13:43;3.60;99.90
4530;DHT22;2277;51.626;7.516;2024-01-15T11:16:12;3.60;99.90
4530;DHT22;2277;51.626;7.516;2024-01-15T11:18:40;3.60;99.90
4530;DHT22;2277;51.626;7.516;2024-01-15T11:23:49;3.70;99.90
4530;DHT22;2277;51.626;7.516;2024-01-15T11:29:04;3.70;99.90
4530;DHT22;2277;51.626;7.516;2024-01-15T11:34:06;3.90;99.90
4530;DHT22;2277;51.626;7.516;2024-01-15T11:42:02;3.90;99.90
4530;DHT22;2277;51.626;7.516;2024-01-15T11:44:31;3.90;99.90
4530;DHT22;2277;51.626;7.516;2024-01-15T11:52:19;3.90;99.90
4530;DHT22;2277;51.626;7.516;2024-01-15T11:55:12;3.90;99.90
4530;DHT22;2277;51.626;7.516;2024-01-15T11:57:40;4.00;99.90
4530;DHT22;2277;51.626;7.516;2024-01-15T12:00:09;3.90;99.90
4530;DHT22;2277;51.626;7.516;2024-01-15T12:02:35;4.00;99.90
4530;DHT22;2277;51.626;7.516;2024-01-15T12:05:00;4.00;99.90
4530;DHT22;2277;51.626;7.516;2024-01-15T12:07:26;3.90;99.90
4530;DHT22;2277;51.626;7.516;2024-01-15T12:09:51;3.90;99.90
4530;DHT22;2277;51.626;7.516;2024-01-15T12:14:58;3.90;99.90
4530;DHT22;2277;51.626;7.516;2024-01-15T12:17:24;3.80;99.90
4530;DHT22;2277;51.626;7.516;2024-01-15T12:19:49;3.70;99.90
4530;DHT22;2277;51.626;7.516;2024-01-15T12:22:15;3.80;99.90
4530;DHT22;2277;51.626;7.516;2024-01-15T12:24:41;3.80;99.90
4530;DHT22;2277;51.626;7.516;2024-01-15T12:27:08;3.90;99.90
4530;DHT22;2277;51.626;7.516;2024-01-15T12:29:33;3.90;99.90
4530;DHT22;2277;51.626;7.516;2024-01-15T12:31:59;3.80;99.90
4530;DHT22;2277;51.626;7.516;2024-01-15T12:34:29;3.80;99.90
4530;DHT22;2277;51.626;7.516;2024-01-15T12:36:57;3.80;99.90
4530;DHT22;2277;51.626;7.516;2024-01-15T12:39:24;3.80;99.90
4530;DHT22;2277;51.626;7.516;2024-01-15T12:41:49;3.80;99.90
4530;DHT22;2277;51.626;7.516;2024-01-15T12:44:15;3.70;99.90
4530;DHT22;2277;51.626;7.516;2024-01-15T12:46:40;3.80;99.90
4530;DHT22;2277;51.626;7.516;2024-01-15T12:49:08;3.70;99.90
4530;DHT22;2277;51.626;7.516;2024-01-15T12:51:34;3.70;99.90
4530;DHT22;2277;51.626;7.516;2024-01-15T12:54:00;3.70;99.90
4530;DHT22;2277;51.626;7.516;2024-01-15T12:56:26;3.80;99.90
4530;DHT22;2277;51.626;7.516;2024-01-15T12:58:51;3.80;99.90
4530;DHT22;2277;51.626;7.516;2024-01-15T13:01:17;3.80;99.90
4530;DHT22;2277;51.626;7.516;2024-01-15T13:03:42;3.80;99.90
4530;DHT22;2277;51.626;7.516;2024-01-15T13:06:08;3.80;99.90
4530;DHT22;2277;51.626;7.516;2024-01-15T13:08:33;3.90;99.90
4530;DHT22;2277;51.626;7.516;2024-01-15T13:11:00;3.80;99.90
4530;DHT22;2277;51.626;7.516;2024-01-15T13:13:25;3.90;99.90
4530;DHT22;2277;51.626;7.516;2024-01-15T13:15:51;3.90;99.90
4530;DHT22;2277;51.626;7.516;2024-01-15T13:18:16;3.80;99.90
4530;DHT22;2277;51.626;7.516;2024-01-15T13:20:42;3.80;99.90
4530;DHT22;2277;51.626;7.516;2024-01-15T13:23:07;3.80;99.90
4530;DHT22;2277;51.626;7.516;2024-01-15T13:25:33;3.80;99.90
4530;DHT22;2277;51.626;7.516;2024-01-15T13:28:01;3.80;99.90
4530;DHT22;2277;51.626;7.516;2024-01-15T13:30:27;3.70;99.90
4530;DHT22;2277;51.626;7.516;2024-01-15T13:32:53;3.70;99.90
4530;DHT22;2277;51.626;7.516;2024-01-15T13:35:19;3.70;99.90
4530;DHT22;2277;51.626;7.516;2024-01-15T13:37:45;3.70;99.90
4530;DHT22;2277;51.626;7.516;2024-01-15T13:40:10;3.70;99.90
4530;DHT22;2277;51.626;7.516;2024-01-15T13:42:42;3.70;99.90
4530;DHT22;2277;51.626;7.516;2024-01-15T13:45:07;3.70;99.90
4530;DHT22;2277;51.626;7.516;2024-01-15T13:47:33;3.70;99.90
4530;DHT22;2277;51.626;7.516;2024-01-15T13:49:59;3.70;99.90
4530;DHT22;2277;51.626;7.516;2024-01-15T13:52:24;3.80;99.90
4530;DHT22;2277;51.626;7.516;2024-01-15T13:54:50;3.80;99.90
4530;DHT22;2277;51.626;7.516;2024-01-15T13:57:16;3.80;99.90
4530;DHT22;2277;51.626;7.516;2024-01-15T13:59:42;3.70;99.90
4530;DHT22;2277;51.626;7.516;2024-01-15T14:02:07;3.70;99.90
4530;DHT22;2277;51.626;7.516;2024-01-15T14:04:33;3.80;99.90
4530;DHT22;2277;51.626;7.516;2024-01-15T14:06:58;3.90;99.90
4530;DHT22;2277;51.626;7.516;2024-01-15T14:09:24;3.90;99.90
4530;DHT22;2277;51.626;7.516;2024-01-15T14:11:51;3.90;99.90
4530;DHT22;2277;51.626;7.516;2024-01-15T14:14:17;3.80;99.90
4530;DHT22;2277;51.626;7.516;2024-01-15T14:16:42;3.80;99.90
4530;DHT22;2277;51.626;7.516;2024-01-15T14:19:08;3.80;99.90
4530;DHT22;2277;51.626;7.516;2024-01-15T14:21:35;3.70;99.90
4530;DHT22;2277;51.626;7.516;2024-01-15T14:24:01;3.70;99.90
4530;DHT22;2277;51.626;7.516;2024-01-15T14:26:26;3.80;99.90
4530;DHT22;2277;51.626;7.516;2024-01-15T14:28:53;3.80;99.90
4530;DHT22;2277;51.626;7.516;2024-01-15T14:31:20;3.90;99.90
4530;DHT22;2277;51.626;7.516;2024-01-15T14:33:45;3.80;99.90
4530;DHT22;2277;51.626;7.516;2024-01-15T14:36:11;3.80;99.90
4530;DHT22;2277;51.626;7.516;2024-01-15T14:38:36;3.70;99.90
4530;DHT22;2277;51.626;7.516;2024-01-15T14:41:02;3.60;99.90
4530;DHT22;2277;51.626;7.516;2024-01-15T14:43:28;3.60;99.90
4530;DHT22;2277;51.626;7.516;2024-01-15T14:45:53;3.50;99.90
4530;DHT22;2277;51.626;7.516;2024-01-15T14:48:19;3.60;99.90
4530;DHT22;2277;51.626;7.516;2024-01-15T14:50:44;3.60;99.90
4530;DHT22;2277;51.626;7.516;2024-01-15T14:53:10;3.60;99.90
4530;DHT22;2277;51.626;7.516;2024-01-15T14:55:35;3.60;99.90
4530;DHT22;2277;51.626;7.516;2024-01-15T14:58:01;3.60;99.90
4530;DHT22;2277;51.626;7.516;2024-01-15T15:00:26;3.60;99.90
4530;DHT22;2277;51.626;7.516;2024-01-15T15:02:52;3.60;99.90
4530;DHT22;2277;51.626;7.516;2024-01-15T15:05:17;3.60;99.90
4530;DHT22;2277;51.626;7.516;2024-01-15T15:07:43;3.70;99.90
4530;DHT22;2277;51.626;7.516;2024-01-15T15:10:09;3.60;99.90
4530;DHT22;2277;51.626;7.516;2024-01-15T15:12:36;3.60;99.90
4530;DHT22;2277;51.626;7.516;2024-01-15T15:15:02;3.60;99.90
4530;DHT22;2277;51.626;7.516;2024-01-15T15:17:28;3.60;99.90
4530;DHT22;2277;51.626;7.516;2024-01-15T15:19:53;3.50;99.90
4530;DHT22;2277;51.626;7.516;2024-01-15T15:22:21;3.50;99.90
4530;DHT22;2277;51.626;7.516;2024-01-15T15:24:47;3.50;99.90
4530;DHT22;2277;51.626;7.516;2024-01-15T15:27:12;3.60;99.90
4530;DHT22;2277;51.626;7.516;2024-01-15T15:29:38;3.60;99.90
4530;DHT22;2277;51.626;7.516;2024-01-15T15:32:04;3.60;99.90
4530;DHT22;2277;51.626;7.516;2024-01-15T15:34:29;3.60;99.90
4530;DHT22;2277;51.626;7.516;2024-01-15T15:36:55;3.60;99.90
4530;DHT22;2277;51.626;7.516;2024-01-15T15:39:20;3.50;99.90
4530;DHT22;2277;51.626;7.516;2024-01-15T15:41:46;3.50;99.90
4530;DHT22;2277;51.626;7.516;2024-01-15T15:44:12;3.50;99.90
4530;DHT22;2277;51.626;7.516;2024-01-15T15:46:42;3.60;99.90
4530;DHT22;2277;51.626;7.516;2024-01-15T15:49:08;3.60;99.90
4530;DHT22;2277;51.626;7.516;2024-01-15T15:51:33;3.60;99.90
4530;DHT22;2277;51.626;7.516;2024-01-15T15:54:01;3.60;99.90
4530;DHT22;2277;51.626;7.516;2024-01-15T15:56:26;3.50;99.90
4530;DHT22;2277;51.626;7.516;2024-01-15T15:58:52;3.50;99.90
4530;DHT22;2277;51.626;7.516;2024-01-15T16:01:17;3.50;99.90
4530;DHT22;2277;51.626;7.516;2024-01-15T16:03:43;3.40;99.90
4530;DHT22;2277;51.626;7.516;2024-01-15T16:06:08;3.30;99.90
4530;DHT22;2277;51.626;7.516;2024-01-15T16:08:34;3.30;99.90
4530;DHT22;2277;51.626;7.516;2024-01-15T16:11:00;3.20;99.90
4530;DHT22;2277;51.626;7.516;2024-01-15T16:13:25;3.20;99.90
4530;DHT22;2277;51.626;7.516;2024-01-15T16:15:51;3.20;99.90
4530;DHT22;2277;51.626;7.516;2024-01-15T16:18:16;3.20;99.90
4530;DHT22;2277;51.626;7.516;2024-01-15T16:20:42;3.10;99.90
4530;DHT22;2277;51.626;7.516;2024-01-15T16:23:08;3.00;99.90
4530;DHT22;2277;51.626;7.516;2024-01-15T16:25:33;3.00;99.90
4530;DHT22;2277;51.626;7.516;2024-01-15T16:28:04;3.00;99.90
4530;DHT22;2277;51.626;7.516;2024-01-15T16:30:29;3.00;99.90